sensor_id;sensor_type;location;lat;lon;timestamp;P1;P2;P0
72509;PMS5003;60532;56.114;40.350;2024-02-28T00:00:44;8.60;5.20;3.00
72509;PMS5003;60532;56.114;40.350;2024-02-28T00:02:45;6.80;3.20;1.00
72509;PMS5003;60532;56.114;40.350;2024-02-28T00:04:46;3.75;2.50;1.00
72509;PMS5003;60532;56.114;40.350;2024-02-28T00:06:47;5.75;4.75;2.50
72509;PMS5003;60532;56.114;40.350;2024-02-28T00:08:48;8.75;4.00;3.00
72509;PMS5003;60532;56.114;40.350;2024-02-28T00:10:51;3.00;3.00;1.00
72509;PMS5003;60532;56.114;40.350;2024-02-28T00:12:52;4.50;4.50;2.50
72509;PMS5003;60532;56.114;40.350;2024-02-28T00:14:52;4.00;3.00;1.00
72509;PMS5003;60532;56.114;40.350;2024-02-28T00:16:53;5.80;3.80;1.80
72509;PMS5003;60532;56.114;40.350;2024-02-28T00:18:54;4.50;4.50;2.00
72509;PMS5003;60532;56.114;40.350;2024-02-28T00:20:55;7.00;6.00;3.75
72509;PMS5003;60532;56.114;40.350;2024-02-28T00:22:56;6.50;4.00;3.00
72509;PMS5003;60532;56.114;40.350;2024-02-28T00:24:56;7.00;4.00;3.00
72509;PMS5003;60532;56.114;40.350;2024-02-28T00:26:57;6.00;3.50;3.00
72509;PMS5003;60532;56.114;40.350;2024-02-28T00:28:58;6.00;4.00;2.00
72509;PMS5003;60532;56.114;40.350;2024-02-28T00:30:59;6.00;3.00;1.00
72509;PMS5003;60532;56.114;40.350;2024-02-28T00:32:59;5.50;4.75;0.75
72509;PMS5003;60532;56.114;40.350;2024-02-28T00:35:00;7.00;6.50;3.00
72509;PMS5003;60532;56.114;40.350;2024-02-28T00:37:01;4.75;3.25;2.50
72509;PMS5003;60532;56.114;40.350;2024-02-28T00:39:03;3.00;3.00;1.00
72509;PMS5003;60532;56.114;40.350;2024-02-28T00:41:04;4.00;4.00;1.00
72509;PMS5003;60532;56.114;40.350;2024-02-28T00:43:05;3.00;3.00;1.00
72509;PMS5003;60532;56.114;40.350;2024-02-28T00:45:07;4.00;2.60;1.00
72509;PMS5003;60532;56.114;40.350;2024-02-28T00:47:09;7.80;4.00;1.00
72509;PMS5003;60532;56.114;40.350;2024-02-28T00:49:10;4.80;4.80;1.00
72509;PMS5003;60532;56.114;40.350;2024-02-28T00:51:11;4.00;2.00;1.00
72509;PMS5003;60532;56.114;40.350;2024-02-28T00:53:11;6.00;2.00;1.00
72509;PMS5003;60532;56.114;40.350;2024-02-28T00:55:12;1.00;1.00;0.50
72509;PMS5003;60532;56.114;40.350;2024-02-28T00:57:13;3.25;3.25;1.00
72509;PMS5003;60532;56.114;40.350;2024-02-28T00:59:14;3.75;3.75;0.50
72509;PMS5003;60532;56.114;40.350;2024-02-28T01:01:14;0.00;0.00;0.00
72509;PMS5003;60532;56.114;40.350;2024-02-28T01:03:15;8.00;3.50;1.00
72509;PMS5003;60532;56.114;40.350;2024-02-28T01:05:16;3.00;3.00;0.50
72509;PMS5003;60532;56.114;40.350;2024-02-28T01:07:16;2.50;1.50;1.00
72509;PMS5003;60532;56.114;40.350;2024-02-28T01:09:17;2.50;1.00;1.00
72509;PMS5003;60532;56.114;40.350;2024-02-28T01:11:18;4.00;3.00;1.00
72509;PMS5003;60532;56.114;40.350;2024-02-28T01:13:19;3.50;3.50;3.00
72509;PMS5003;60532;56.114;40.350;2024-02-28T01:15:19;6.00;3.25;0.75
72509;PMS5003;60532;56.114;40.350;2024-02-28T01:17:20;3.25;3.25;1.00
72509;PMS5003;60532;56.114;40.350;2024-02-28T01:19:22;6.40;6.40;1.00
72509;PMS5003;60532;56.114;40.350;2024-02-28T01:21:22;4.50;3.00;1.00
72509;PMS5003;60532;56.114;40.350;2024-02-28T01:23:23;6.50;4.00;3.00
72509;PMS5003;60532;56.114;40.350;2024-02-28T01:25:24;5.00;3.50;1.00
72509;PMS5003;60532;56.114;40.350;2024-02-28T01:27:24;5.00;3.25;1.00
72509;PMS5003;60532;56.114;40.350;2024-02-28T01:29:25;4.50;4.50;1.00
72509;PMS5003;60532;56.114;40.350;2024-02-28T01:31:26;6.00;2.50;1.00
72509;PMS5003;60532;56.114;40.350;2024-02-28T01:33:27;9.00;6.00;3.00
72509;PMS5003;60532;56.114;40.350;2024-02-28T01:35:27;3.50;3.50;3.00
72509;PMS5003;60532;56.114;40.350;2024-02-28T01:37:28;7.00;5.50;1.00
72509;PMS5003;60532;56.114;40.350;2024-02-28T01:39:29;8.75;4.50;1.00
72509;PMS5003;60532;56.114;40.350;2024-02-28T01:41:29;8.50;4.50;1.50
72509;PMS5003;60532;56.114;40.350;2024-02-28T01:43:30;8.00;4.00;1.00
72509;PMS5003;60532;56.114;40.350;2024-02-28T01:45:31;5.00;3.00;1.00
72509;PMS5003;60532;56.114;40.350;2024-02-28T01:47:31;0.00;0.00;0.00
72509;PMS5003;60532;56.114;40.350;2024-02-28T01:49:32;3.50;3.50;2.50
72509;PMS5003;60532;56.114;40.350;2024-02-28T01:51:33;3.50;2.00;2.00
72509;PMS5003;60532;56.114;40.350;2024-02-28T01:53:33;3.25;1.00;0.25
72509;PMS5003;60532;56.114;40.350;2024-02-28T01:55:37;3.50;3.25;0.00
72509;PMS5003;60532;56.114;40.350;2024-02-28T01:57:38;4.80;3.00;2.20
72509;PMS5003;60532;56.114;40.350;2024-02-28T01:59:39;4.80;3.00;0.40
72509;PMS5003;60532;56.114;40.350;2024-02-28T02:01:41;7.80;3.80;1.00
72509;PMS5003;60532;56.114;40.350;2024-02-28T02:03:44;5.60;3.80;2.60
72509;PMS5003;60532;56.114;40.350;2024-02-28T02:05:45;4.00;3.00;1.00
72509;PMS5003;60532;56.114;40.350;2024-02-28T02:07:48;5.00;4.50;1.50
72509;PMS5003;60532;56.114;40.350;2024-02-28T02:09:51;5.00;3.80;1.40
72509;PMS5003;60532;56.114;40.350;2024-02-28T02:11:52;3.00;3.00;1.00
72509;PMS5003;60532;56.114;40.350;2024-02-28T02:13:53;5.50;3.25;1.00
72509;PMS5003;60532;56.114;40.350;2024-02-28T02:15:54;6.25;4.50;1.50
72509;PMS5003;60532;56.114;40.350;2024-02-28T02:17:54;4.40;4.40;2.80
72509;PMS5003;60532;56.114;40.350;2024-02-28T02:19:55;8.00;3.50;1.00
72509;PMS5003;60532;56.114;40.350;2024-02-28T02:21:59;6.25;3.75;2.50
72509;PMS5003;60532;56.114;40.350;2024-02-28T02:24:03;3.20;1.40;0.00
72509;PMS5003;60532;56.114;40.350;2024-02-28T02:26:04;5.50;3.50;1.00
72509;PMS5003;60532;56.114;40.350;2024-02-28T02:28:05;4.25;3.00;3.00
72509;PMS5003;60532;56.114;40.350;2024-02-28T02:30:06;4.60;4.00;3.00
72509;PMS5003;60532;56.114;40.350;2024-02-28T02:32:07;10.00;5.60;3.00
72509;PMS5003;60532;56.114;40.350;2024-02-28T02:34:07;9.00;3.75;1.00
72509;PMS5003;60532;56.114;40.350;2024-02-28T02:36:08;5.00;5.00;3.50
72509;PMS5003;60532;56.114;40.350;2024-02-28T02:38:09;8.00;4.50;1.00
72509;PMS5003;60532;56.114;40.350;2024-02-28T02:40:10;3.25;3.25;1.00
72509;PMS5003;60532;56.114;40.350;2024-02-28T02:42:11;4.00;4.00;3.00
72509;PMS5003;60532;56.114;40.350;2024-02-28T02:44:15;5.60;3.00;2.60
72509;PMS5003;60532;56.114;40.350;2024-02-28T02:46:15;1.50;1.50;1.00
72509;PMS5003;60532;56.114;40.350;2024-02-28T02:48:16;7.00;3.00;1.00
72509;PMS5003;60532;56.114;40.350;2024-02-28T02:50:17;3.50;2.50;2.00
72509;PMS5003;60532;56.114;40.350;2024-02-28T02:52:18;11.25;6.25;3.00
72509;PMS5003;60532;56.114;40.350;2024-02-28T02:54:18;5.25;4.00;3.00
72509;PMS5003;60532;56.114;40.350;2024-02-28T02:56:19;5.75;4.00;1.00
72509;PMS5003;60532;56.114;40.350;2024-02-28T02:58:20;6.25;6.00;3.00
72509;PMS5003;60532;56.114;40.350;2024-02-28T03:00:21;6.50;6.25;3.00
72509;PMS5003;60532;56.114;40.350;2024-02-28T03:02:22;3.60;3.60;1.80
72509;PMS5003;60532;56.114;40.350;2024-02-28T03:04:23;10.25;4.00;1.00
72509;PMS5003;60532;56.114;40.350;2024-02-28T03:06:23;5.50;4.50;3.00
72509;PMS5003;60532;56.114;40.350;2024-02-28T03:08:24;9.50;5.00;3.00
72509;PMS5003;60532;56.114;40.350;2024-02-28T03:10:25;1.00;1.00;1.00
72509;PMS5003;60532;56.114;40.350;2024-02-28T03:12:26;4.50;4.00;1.50
72509;PMS5003;60532;56.114;40.350;2024-02-28T03:14:26;7.50;6.00;2.50
72509;PMS5003;60532;56.114;40.350;2024-02-28T03:16:27;6.00;3.00;1.00
72509;PMS5003;60532;56.114;40.350;2024-02-28T03:18:29;10.00;6.00;3.20
72509;PMS5003;60532;56.114;40.350;2024-02-28T03:20:30;3.00;3.00;2.50
72509;PMS5003;60532;56.114;40.350;2024-02-28T03:22:30;4.00;3.50;1.00
72509;PMS5003;60532;56.114;40.350;2024-02-28T03:24:31;3.00;3.00;1.00
72509;PMS5003;60532;56.114;40.350;2024-02-28T03:26:32;5.50;3.25;1.00
72509;PMS5003;60532;56.114;40.350;2024-02-28T03:28:33;6.25;3.00;2.00
72509;PMS5003;60532;56.114;40.350;2024-02-28T03:30:33;1.00;1.00;1.00
72509;PMS5003;60532;56.114;40.350;2024-02-28T03:32:34;3.00;3.00;1.00
72509;PMS5003;60532;56.114;40.350;2024-02-28T03:34:35;10.00;3.50;1.00
72509;PMS5003;60532;56.114;40.350;2024-02-28T03:36:35;4.50;3.50;1.00
72509;PMS5003;60532;56.114;40.350;2024-02-28T03:38:37;8.00;4.40;2.60
72509;PMS5003;60532;56.114;40.350;2024-02-28T03:40:37;9.00;6.25;1.00
72509;PMS5003;60532;56.114;40.350;2024-02-28T03:42:38;9.00;3.00;2.00
72509;PMS5003;60532;56.114;40.350;2024-02-28T03:44:39;6.00;5.60;1.00
72509;PMS5003;60532;56.114;40.350;2024-02-28T03:46:40;3.00;3.00;3.00
72509;PMS5003;60532;56.114;40.350;2024-02-28T03:48:40;6.50;5.00;3.00
72509;PMS5003;60532;56.114;40.350;2024-02-28T03:50:41;4.50;3.00;1.50
72509;PMS5003;60532;56.114;40.350;2024-02-28T03:52:42;12.50;6.00;1.00
72509;PMS5003;60532;56.114;40.350;2024-02-28T03:54:43;8.75;3.00;3.00
72509;PMS5003;60532;56.114;40.350;2024-02-28T03:56:43;3.00;3.00;1.40
72509;PMS5003;60532;56.114;40.350;2024-02-28T03:58:44;10.00;2.00;0.50
72509;PMS5003;60532;56.114;40.350;2024-02-28T04:00:45;5.00;3.75;1.00
72509;PMS5003;60532;56.114;40.350;2024-02-28T04:02:46;7.00;3.20;1.00
72509;PMS5003;60532;56.114;40.350;2024-02-28T04:04:47;7.00;1.00;0.25
72509;PMS5003;60532;56.114;40.350;2024-02-28T04:06:47;6.50;3.50;1.00
72509;PMS5003;60532;56.114;40.350;2024-02-28T04:08:48;8.50;4.00;2.50
72509;PMS5003;60532;56.114;40.350;2024-02-28T04:10:49;7.00;3.25;1.00
72509;PMS5003;60532;56.114;40.350;2024-02-28T04:12:51;5.20;1.80;1.00
72509;PMS5003;60532;56.114;40.350;2024-02-28T04:14:51;6.50;5.00;1.50
72509;PMS5003;60532;56.114;40.350;2024-02-28T04:16:52;3.75;3.75;1.00
72509;PMS5003;60532;56.114;40.350;2024-02-28T04:18:53;7.80;4.40;1.00
72509;PMS5003;60532;56.114;40.350;2024-02-28T04:20:54;6.50;3.00;2.00
72509;PMS5003;60532;56.114;40.350;2024-02-28T04:22:55;8.50;3.00;1.00
72509;PMS5003;60532;56.114;40.350;2024-02-28T04:24:55;4.50;4.00;3.00
72509;PMS5003;60532;56.114;40.350;2024-02-28T04:26:57;6.60;3.00;1.00
72509;PMS5003;60532;56.114;40.350;2024-02-28T04:28:59;6.20;4.40;1.80
72509;PMS5003;60532;56.114;40.350;2024-02-28T04:31:01;4.60;4.40;2.20
72509;PMS5003;60532;56.114;40.350;2024-02-28T04:33:02;4.00;3.50;1.00
72509;PMS5003;60532;56.114;40.350;2024-02-28T04:35:03;1.50;1.00;1.00
72509;PMS5003;60532;56.114;40.350;2024-02-28T04:37:07;7.00;6.00;3.00
72509;PMS5003;60532;56.114;40.350;2024-02-28T04:39:07;8.80;7.00;3.00
72509;PMS5003;60532;56.114;40.350;2024-02-28T04:41:09;3.60;3.60;1.00
72509;PMS5003;60532;56.114;40.350;2024-02-28T04:43:09;10.75;5.50;1.00
72509;PMS5003;60532;56.114;40.350;2024-02-28T04:45:10;1.00;1.00;1.00
72509;PMS5003;60532;56.114;40.350;2024-02-28T04:47:11;6.75;1.50;1.00
72509;PMS5003;60532;56.114;40.350;2024-02-28T04:49:11;4.50;3.00;0.50
72509;PMS5003;60532;56.114;40.350;2024-02-28T04:51:14;10.50;6.00;3.00
72509;PMS5003;60532;56.114;40.350;2024-02-28T04:53:15;5.60;3.00;3.00
72509;PMS5003;60532;56.114;40.350;2024-02-28T04:55:16;3.00;3.00;1.00
72509;PMS5003;60532;56.114;40.350;2024-02-28T04:57:17;7.00;3.50;1.00
72509;PMS5003;60532;56.114;40.350;2024-02-28T04:59:17;6.75;3.00;2.50
72509;PMS5003;60532;56.114;40.350;2024-02-28T05:01:18;9.00;3.50;3.00
72509;PMS5003;60532;56.114;40.350;2024-02-28T05:03:19;13.00;4.00;3.00
72509;PMS5003;60532;56.114;40.350;2024-02-28T05:05:19;7.50;3.25;3.00
72509;PMS5003;60532;56.114;40.350;2024-02-28T05:07:20;5.50;3.75;3.00
72509;PMS5003;60532;56.114;40.350;2024-02-28T05:09:21;3.00;3.00;2.33
72509;PMS5003;60532;56.114;40.350;2024-02-28T05:11:21;5.33;3.00;2.33
72509;PMS5003;60532;56.114;40.350;2024-02-28T05:13:22;9.00;3.67;2.33
72509;PMS5003;60532;56.114;40.350;2024-02-28T05:15:24;6.00;6.00;1.00
72509;PMS5003;60532;56.114;40.350;2024-02-28T05:17:25;7.00;6.33;3.00
72509;PMS5003;60532;56.114;40.350;2024-02-28T05:19:25;3.67;3.33;1.00
72509;PMS5003;60532;56.114;40.350;2024-02-28T05:21:26;7.00;5.00;1.00
72509;PMS5003;60532;56.114;40.350;2024-02-28T05:23:27;11.50;8.50;3.00
72509;PMS5003;60532;56.114;40.350;2024-02-28T05:25:28;8.33;4.00;2.33
72509;PMS5003;60532;56.114;40.350;2024-02-28T05:27:29;4.00;3.00;3.00
72509;PMS5003;60532;56.114;40.350;2024-02-28T05:29:29;6.00;3.33;3.00
72509;PMS5003;60532;56.114;40.350;2024-02-28T05:31:30;6.33;5.33;3.67
72509;PMS5003;60532;56.114;40.350;2024-02-28T05:33:32;10.00;4.00;3.00
72509;PMS5003;60532;56.114;40.350;2024-02-28T05:35:32;9.00;3.00;1.00
72509;PMS5003;60532;56.114;40.350;2024-02-28T05:37:33;4.67;3.33;1.67
72509;PMS5003;60532;56.114;40.350;2024-02-28T05:39:35;6.25;3.75;1.00
72509;PMS5003;60532;56.114;40.350;2024-02-28T05:41:35;5.33;3.00;1.00
72509;PMS5003;60532;56.114;40.350;2024-02-28T05:43:36;6.00;4.00;1.00
72509;PMS5003;60532;56.114;40.350;2024-02-28T05:45:37;6.75;4.25;3.50
72509;PMS5003;60532;56.114;40.350;2024-02-28T05:47:38;5.67;4.33;2.67
72509;PMS5003;60532;56.114;40.350;2024-02-28T05:49:38;4.00;4.00;2.67
72509;PMS5003;60532;56.114;40.350;2024-02-28T05:51:39;1.33;0.00;0.00
72509;PMS5003;60532;56.114;40.350;2024-02-28T05:53:40;4.00;1.33;0.33
72509;PMS5003;60532;56.114;40.350;2024-02-28T05:55:41;5.50;5.50;2.00
72509;PMS5003;60532;56.114;40.350;2024-02-28T05:57:41;7.00;5.00;2.00
72509;PMS5003;60532;56.114;40.350;2024-02-28T05:59:42;10.67;5.67;2.67
72509;PMS5003;60532;56.114;40.350;2024-02-28T06:01:43;8.50;6.25;2.50
72509;PMS5003;60532;56.114;40.350;2024-02-28T06:03:47;8.25;4.50;1.00
72509;PMS5003;60532;56.114;40.350;2024-02-28T06:05:48;5.00;4.75;2.00
72509;PMS5003;60532;56.114;40.350;2024-02-28T06:07:49;8.67;5.00;2.00
72509;PMS5003;60532;56.114;40.350;2024-02-28T06:09:49;6.00;5.00;3.33
72509;PMS5003;60532;56.114;40.350;2024-02-28T06:11:50;10.00;9.00;2.50
72509;PMS5003;60532;56.114;40.350;2024-02-28T06:13:51;11.25;8.00;3.25
72509;PMS5003;60532;56.114;40.350;2024-02-28T06:15:51;7.75;5.00;3.25
72509;PMS5003;60532;56.114;40.350;2024-02-28T06:17:52;9.25;6.00;2.25
72509;PMS5003;60532;56.114;40.350;2024-02-28T06:19:53;6.50;6.00;3.50
72509;PMS5003;60532;56.114;40.350;2024-02-28T06:21:53;10.75;6.75;2.00
72509;PMS5003;60532;56.114;40.350;2024-02-28T06:23:54;7.75;5.00;2.00
72509;PMS5003;60532;56.114;40.350;2024-02-28T06:25:55;9.50;6.50;3.50
72509;PMS5003;60532;56.114;40.350;2024-02-28T06:27:56;7.40;6.00;2.60
72509;PMS5003;60532;56.114;40.350;2024-02-28T06:29:58;13.75;7.00;2.75
72509;PMS5003;60532;56.114;40.350;2024-02-28T06:31:59;7.00;5.60;2.40
72509;PMS5003;60532;56.114;40.350;2024-02-28T06:34:00;11.00;9.50;3.50
72509;PMS5003;60532;56.114;40.350;2024-02-28T06:36:02;10.60;8.60;3.80
72509;PMS5003;60532;56.114;40.350;2024-02-28T06:38:03;9.25;8.25;3.50
72509;PMS5003;60532;56.114;40.350;2024-02-28T06:40:04;9.75;7.50;3.50
72509;PMS5003;60532;56.114;40.350;2024-02-28T06:42:05;6.40;5.00;3.00
72509;PMS5003;60532;56.114;40.350;2024-02-28T06:44:05;6.25;5.00;3.00
72509;PMS5003;60532;56.114;40.350;2024-02-28T06:46:08;7.40;7.40;3.00
72509;PMS5003;60532;56.114;40.350;2024-02-28T06:48:08;5.75;5.75;2.25
72509;PMS5003;60532;56.114;40.350;2024-02-28T06:50:09;6.00;5.25;2.00
72509;PMS5003;60532;56.114;40.350;2024-02-28T06:52:09;5.00;5.00;2.25
72509;PMS5003;60532;56.114;40.350;2024-02-28T06:54:10;8.25;6.00;4.00
72509;PMS5003;60532;56.114;40.350;2024-02-28T06:56:11;6.50;6.50;3.00
72509;PMS5003;60532;56.114;40.350;2024-02-28T06:58:11;7.25;5.00;3.00
72509;PMS5003;60532;56.114;40.350;2024-02-28T07:00:12;9.00;6.25;5.00
72509;PMS5003;60532;56.114;40.350;2024-02-28T07:02:15;7.40;5.20;2.00
72509;PMS5003;60532;56.114;40.350;2024-02-28T07:04:15;6.00;5.50;4.50
72509;PMS5003;60532;56.114;40.350;2024-02-28T07:06:17;5.20;5.00;1.40
72509;PMS5003;60532;56.114;40.350;2024-02-28T07:08:17;6.00;6.00;2.00
72509;PMS5003;60532;56.114;40.350;2024-02-28T07:10:18;6.00;5.00;2.00
72509;PMS5003;60532;56.114;40.350;2024-02-28T07:12:19;5.60;5.60;3.00
72509;PMS5003;60532;56.114;40.350;2024-02-28T07:14:20;5.75;5.75;2.00
72509;PMS5003;60532;56.114;40.350;2024-02-28T07:16:20;8.50;5.00;2.75
72509;PMS5003;60532;56.114;40.350;2024-02-28T07:18:21;4.50;4.50;2.25
72509;PMS5003;60532;56.114;40.350;2024-02-28T07:20:23;11.00;6.60;2.00
72509;PMS5003;60532;56.114;40.350;2024-02-28T07:22:24;4.40;4.00;2.00
72509;PMS5003;60532;56.114;40.350;2024-02-28T07:24:25;15.00;8.00;4.00
72509;PMS5003;60532;56.114;40.350;2024-02-28T07:26:26;4.00;3.50;1.25
72509;PMS5003;60532;56.114;40.350;2024-02-28T07:28:27;4.75;4.25;1.75
72509;PMS5003;60532;56.114;40.350;2024-02-28T07:30:27;4.25;4.25;4.00
72509;PMS5003;60532;56.114;40.350;2024-02-28T07:32:28;1.60;1.60;0.00
72509;PMS5003;60532;56.114;40.350;2024-02-28T07:34:32;6.20;4.00;2.00
72509;PMS5003;60532;56.114;40.350;2024-02-28T07:36:34;5.00;4.80;2.00
72509;PMS5003;60532;56.114;40.350;2024-02-28T07:38:34;11.25;6.50;4.00
72509;PMS5003;60532;56.114;40.350;2024-02-28T07:40:35;8.00;5.00;2.50
72509;PMS5003;60532;56.114;40.350;2024-02-28T07:42:36;5.40;5.40;3.60
72509;PMS5003;60532;56.114;40.350;2024-02-28T07:44:37;7.50;5.50;2.00
72509;PMS5003;60532;56.114;40.350;2024-02-28T07:46:38;9.50;7.50;4.00
72509;PMS5003;60532;56.114;40.350;2024-02-28T07:48:38;8.20;6.80;4.00
72509;PMS5003;60532;56.114;40.350;2024-02-28T07:50:39;4.50;4.50;4.00
72509;PMS5003;60532;56.114;40.350;2024-02-28T07:52:42;9.00;2.40;0.00
72509;PMS5003;60532;56.114;40.350;2024-02-28T07:54:42;7.75;7.75;5.00
72509;PMS5003;60532;56.114;40.350;2024-02-28T07:56:46;8.80;4.60;4.00
72509;PMS5003;60532;56.114;40.350;2024-02-28T07:58:46;7.00;6.50;2.50
72509;PMS5003;60532;56.114;40.350;2024-02-28T08:00:47;9.75;6.00;3.00
72509;PMS5003;60532;56.114;40.350;2024-02-28T08:02:48;5.00;5.00;4.00
72509;PMS5003;60532;56.114;40.350;2024-02-28T08:04:49;8.00;2.00;2.00
72509;PMS5003;60532;56.114;40.350;2024-02-28T08:06:51;9.60;4.40;3.20
72509;PMS5003;60532;56.114;40.350;2024-02-28T08:08:51;12.67;7.67;4.00
72509;PMS5003;60532;56.114;40.350;2024-02-28T08:10:52;7.67;5.67;2.67
72509;PMS5003;60532;56.114;40.350;2024-02-28T08:12:53;8.75;6.50;4.00
72509;PMS5003;60532;56.114;40.350;2024-02-28T08:14:54;5.67;4.67;2.00
72509;PMS5003;60532;56.114;40.350;2024-02-28T08:16:54;13.33;10.67;5.00
72509;PMS5003;60532;56.114;40.350;2024-02-28T08:18:55;10.67;7.33;4.00
72509;PMS5003;60532;56.114;40.350;2024-02-28T08:20:56;8.75;5.75;2.00
72509;PMS5003;60532;56.114;40.350;2024-02-28T08:22:57;3.50;3.50;3.50
72509;PMS5003;60532;56.114;40.350;2024-02-28T08:24:59;9.00;5.00;3.00
72509;PMS5003;60532;56.114;40.350;2024-02-28T08:26:59;7.00;7.00;4.00
72509;PMS5003;60532;56.114;40.350;2024-02-28T08:29:00;5.00;5.00;2.00
72509;PMS5003;60532;56.114;40.350;2024-02-28T08:31:00;8.00;7.00;4.00
72509;PMS5003;60532;56.114;40.350;2024-02-28T08:33:01;5.00;5.00;4.00
72509;PMS5003;60532;56.114;40.350;2024-02-28T08:35:02;8.00;6.67;4.00
72509;PMS5003;60532;56.114;40.350;2024-02-28T08:37:04;7.75;6.00;3.50
72509;PMS5003;60532;56.114;40.350;2024-02-28T08:39:04;5.33;5.33;2.00
72509;PMS5003;60532;56.114;40.350;2024-02-28T08:41:05;8.33;5.00;4.00
72509;PMS5003;60532;56.114;40.350;2024-02-28T08:43:07;10.00;7.00;4.00
72509;PMS5003;60532;56.114;40.350;2024-02-28T08:45:08;10.00;7.33;4.67
72509;PMS5003;60532;56.114;40.350;2024-02-28T08:47:09;7.00;2.50;1.00
72509;PMS5003;60532;56.114;40.350;2024-02-28T08:49:11;13.75;10.00;4.75
72509;PMS5003;60532;56.114;40.350;2024-02-28T08:51:12;9.67;7.00;5.00
72509;PMS5003;60532;56.114;40.350;2024-02-28T08:53:12;8.67;2.00;1.00
72509;PMS5003;60532;56.114;40.350;2024-02-28T08:55:13;8.00;6.67;2.67
72509;PMS5003;60532;56.114;40.350;2024-02-28T08:57:14;5.67;5.00;4.00
72509;PMS5003;60532;56.114;40.350;2024-02-28T08:59:15;6.75;4.75;1.75
72509;PMS5003;60532;56.114;40.350;2024-02-28T09:01:15;11.00;8.00;4.00
72509;PMS5003;60532;56.114;40.350;2024-02-28T09:03:16;8.00;1.00;0.00
72509;PMS5003;60532;56.114;40.350;2024-02-28T09:05:17;10.00;7.67;4.00
72509;PMS5003;60532;56.114;40.350;2024-02-28T09:07:18;10.25;9.00;4.75
72509;PMS5003;60532;56.114;40.350;2024-02-28T09:09:22;5.00;5.00;2.00
72509;PMS5003;60532;56.114;40.350;2024-02-28T09:11:22;8.67;4.00;4.00
72509;PMS5003;60532;56.114;40.350;2024-02-28T09:13:23;3.33;2.00;1.00
72509;PMS5003;60532;56.114;40.350;2024-02-28T09:15:24;9.33;9.33;3.33
72509;PMS5003;60532;56.114;40.350;2024-02-28T09:17:25;7.75;7.75;4.00
72509;PMS5003;60532;56.114;40.350;2024-02-28T09:19:26;15.67;9.00;5.00
72509;PMS5003;60532;56.114;40.350;2024-02-28T09:21:27;9.00;8.00;4.00
72509;PMS5003;60532;56.114;40.350;2024-02-28T09:23:27;9.67;8.67;5.00
72509;PMS5003;60532;56.114;40.350;2024-02-28T09:25:28;13.33;10.67;5.00
72509;PMS5003;60532;56.114;40.350;2024-02-28T09:27:28;11.00;7.00;4.00
72509;PMS5003;60532;56.114;40.350;2024-02-28T09:29:29;8.67;8.67;4.67
72509;PMS5003;60532;56.114;40.350;2024-02-28T09:31:30;10.33;7.67;4.00
72509;PMS5003;60532;56.114;40.350;2024-02-28T09:33:31;8.00;6.33;4.00
72509;PMS5003;60532;56.114;40.350;2024-02-28T09:35:31;12.67;8.67;5.00
72509;PMS5003;60532;56.114;40.350;2024-02-28T09:37:32;7.00;7.00;4.00
72509;PMS5003;60532;56.114;40.350;2024-02-28T09:39:33;15.00;11.00;5.00
72509;PMS5003;60532;56.114;40.350;2024-02-28T09:41:33;10.00;9.67;4.67
72509;PMS5003;60532;56.114;40.350;2024-02-28T09:43:39;9.33;7.33;4.00
72509;PMS5003;60532;56.114;40.350;2024-02-28T09:45:41;12.00;7.00;4.00
72509;PMS5003;60532;56.114;40.350;2024-02-28T09:47:41;14.33;10.00;4.67
72509;PMS5003;60532;56.114;40.350;2024-02-28T09:49:42;10.67;10.67;6.33
72509;PMS5003;60532;56.114;40.350;2024-02-28T09:51:43;9.50;9.50;6.00
72509;PMS5003;60532;56.114;40.350;2024-02-28T09:53:44;14.00;10.00;4.00
72509;PMS5003;60532;56.114;40.350;2024-02-28T09:55:45;15.50;10.00;4.50
72509;PMS5003;60532;56.114;40.350;2024-02-28T09:57:47;7.25;7.25;5.00
72509;PMS5003;60532;56.114;40.350;2024-02-28T09:59:48;15.00;11.50;5.00
72509;PMS5003;60532;56.114;40.350;2024-02-28T10:01:53;14.33;9.33;7.00
72509;PMS5003;60532;56.114;40.350;2024-02-28T10:03:55;13.25;7.50;4.25
72509;PMS5003;60532;56.114;40.350;2024-02-28T10:05:57;7.75;7.25;5.00
72509;PMS5003;60532;56.114;40.350;2024-02-28T10:07:57;13.67;11.33;5.00
72509;PMS5003;60532;56.114;40.350;2024-02-28T10:09:58;12.33;11.33;5.67
72509;PMS5003;60532;56.114;40.350;2024-02-28T10:12:01;10.67;8.67;6.33
72509;PMS5003;60532;56.114;40.350;2024-02-28T10:14:02;13.50;9.50;7.00
72509;PMS5003;60532;56.114;40.350;2024-02-28T10:16:06;14.67;11.33;4.33
72509;PMS5003;60532;56.114;40.350;2024-02-28T10:18:07;8.75;8.50;4.25
72509;PMS5003;60532;56.114;40.350;2024-02-28T10:20:07;9.00;7.00;4.00
72509;PMS5003;60532;56.114;40.350;2024-02-28T10:22:09;10.00;7.50;3.00
72509;PMS5003;60532;56.114;40.350;2024-02-28T10:24:11;14.33;8.00;5.00
72509;PMS5003;60532;56.114;40.350;2024-02-28T10:26:13;13.00;10.50;5.00
72509;PMS5003;60532;56.114;40.350;2024-02-28T10:28:14;14.00;13.67;7.00
72509;PMS5003;60532;56.114;40.350;2024-02-28T10:30:18;17.00;12.75;5.00
72509;PMS5003;60532;56.114;40.350;2024-02-28T10:32:19;15.50;9.50;5.00
72509;PMS5003;60532;56.114;40.350;2024-02-28T10:34:19;19.00;10.00;7.00
72509;PMS5003;60532;56.114;40.350;2024-02-28T10:36:20;9.67;9.67;4.67
72509;PMS5003;60532;56.114;40.350;2024-02-28T10:38:21;11.33;8.00;7.00
72509;PMS5003;60532;56.114;40.350;2024-02-28T10:40:22;14.00;11.00;7.50
72509;PMS5003;60532;56.114;40.350;2024-02-28T10:42:22;17.33;9.33;4.67
72509;PMS5003;60532;56.114;40.350;2024-02-28T10:44:27;12.25;11.25;7.00
72509;PMS5003;60532;56.114;40.350;2024-02-28T10:46:28;21.25;13.25;6.00
72509;PMS5003;60532;56.114;40.350;2024-02-28T10:48:29;4.75;4.00;1.00
72509;PMS5003;60532;56.114;40.350;2024-02-28T10:50:30;11.00;10.00;5.00
72509;PMS5003;60532;56.114;40.350;2024-02-28T10:52:32;11.50;10.25;4.25
72509;PMS5003;60532;56.114;40.350;2024-02-28T10:54:34;13.00;11.00;6.33
72509;PMS5003;60532;56.114;40.350;2024-02-28T10:56:37;12.50;10.75;6.50
72509;PMS5003;60532;56.114;40.350;2024-02-28T10:58:43;17.00;8.00;5.00
72509;PMS5003;60532;56.114;40.350;2024-02-28T11:00:45;12.00;9.50;5.00
72509;PMS5003;60532;56.114;40.350;2024-02-28T11:02:46;12.50;8.00;6.00
72509;PMS5003;60532;56.114;40.350;2024-02-28T11:04:47;13.50;13.00;6.50
72509;PMS5003;60532;56.114;40.350;2024-02-28T11:06:48;8.67;8.67;5.00
72509;PMS5003;60532;56.114;40.350;2024-02-28T11:08:51;11.00;10.25;7.00
72509;PMS5003;60532;56.114;40.350;2024-02-28T11:11:03;14.50;9.00;5.00
72509;PMS5003;60532;56.114;40.350;2024-02-28T11:13:04;14.50;10.00;6.50
72509;PMS5003;60532;56.114;40.350;2024-02-28T11:15:05;12.33;10.33;4.67
72509;PMS5003;60532;56.114;40.350;2024-02-28T11:17:06;11.50;8.50;6.00
72509;PMS5003;60532;56.114;40.350;2024-02-28T11:19:07;10.33;8.00;5.00
72509;PMS5003;60532;56.114;40.350;2024-02-28T11:21:15;19.75;10.00;7.75
72509;PMS5003;60532;56.114;40.350;2024-02-28T11:23:19;11.25;11.00;5.50
72509;PMS5003;60532;56.114;40.350;2024-02-28T11:25:19;11.50;7.25;4.00
72509;PMS5003;60532;56.114;40.350;2024-02-28T11:27:20;17.33;8.67;5.00
72509;PMS5003;60532;56.114;40.350;2024-02-28T11:29:22;12.75;9.00;5.00
72509;PMS5003;60532;56.114;40.350;2024-02-28T11:31:23;10.50;8.00;6.00
72509;PMS5003;60532;56.114;40.350;2024-02-28T11:33:24;17.33;11.67;7.00
72509;PMS5003;60532;56.114;40.350;2024-02-28T11:35:28;15.33;13.33;7.00